createdAt,value
2024-02-24T00:02:11.340Z,99628.89
2024-02-24T00:05:42.256Z,99628.95
2024-02-24T00:09:30.671Z,99627.33
2024-02-24T00:13:20.981Z,99627.06
2024-02-24T00:33:18.614Z,99614.17
2024-02-24T00:37:06.535Z,99619.09
2024-02-24T00:41:09.418Z,99629.14
2024-02-24T00:45:03.228Z,99622.69
2024-02-24T00:48:58.123Z,99620.65
2024-02-24T00:52:37.740Z,99624.67
2024-02-24T00:56:30.644Z,99624.46
2024-02-24T01:00:19.617Z,99635.22
2024-02-24T01:04:07.597Z,99636.55
2024-02-24T01:07:59.728Z,99637.20
2024-02-24T01:16:12.368Z,99634.90
2024-02-24T01:19:51.189Z,99633.63
2024-02-24T01:23:44.296Z,99628.91
2024-02-24T01:27:33.042Z,99617.67
2024-02-24T01:31:20.968Z,99606.36
2024-02-24T01:35:27.110Z,99597.98
2024-02-24T01:39:28.379Z,99584.77
2024-02-24T01:47:35.110Z,99579.49
2024-02-24T01:51:30.200Z,99581.29
2024-02-24T01:55:18.932Z,99584.26
2024-02-24T01:59:08.750Z,99589.35
2024-02-24T02:02:59.724Z,99593.73
2024-02-24T02:06:46.786Z,99599.59
2024-02-24T02:14:53.583Z,99598.91
2024-02-24T02:18:55.715Z,99595.88
2024-02-24T02:22:45.794Z,99600.30
2024-02-24T02:26:34.670Z,99607.07
2024-02-24T02:30:13.111Z,99613.93
2024-02-24T02:34:01.813Z,99612.96
2024-02-24T02:37:54.400Z,99617.33
2024-02-24T02:41:47.980Z,99613.77
2024-02-24T02:45:44.432Z,99606.76
2024-02-24T02:49:15.409Z,99610.13
2024-02-24T02:53:05.881Z,99606.60
2024-02-24T02:56:53.865Z,99597.95
2024-02-24T03:00:41.093Z,99587.39
2024-02-24T03:04:38.664Z,99585.77
2024-02-24T03:08:26.706Z,99577.30
2024-02-24T03:12:17.509Z,99578.21
2024-02-24T03:20:42.348Z,99578.57
2024-02-24T03:24:36.213Z,99570.21
2024-02-24T03:28:24.948Z,99566.65
2024-02-24T03:32:25.177Z,99561.47
2024-02-24T03:36:22.081Z,99565.66
2024-02-24T03:40:12.960Z,99572.95
2024-02-24T03:44:15.954Z,99572.87
2024-02-24T03:48:06.117Z,99561.34
2024-02-24T03:52:06.706Z,99556.98
2024-02-24T03:56:08.638Z,99555.69
2024-02-24T03:59:56.623Z,99556.80
2024-02-24T04:04:00.121Z,99554.09
2024-02-24T04:07:48.050Z,99558.09
2024-02-24T04:11:30.007Z,99550.67
2024-02-24T04:15:34.937Z,99547.62
2024-02-24T04:19:35.161Z,99546.23
2024-02-24T04:23:23.132Z,99536.60
2024-02-24T04:27:25.156Z,99531.59
2024-02-24T04:31:13.074Z,99524.98
2024-02-24T04:35:13.187Z,99523.11
2024-02-24T04:43:24.885Z,99517.59
2024-02-24T04:56:22.373Z,99508.96
2024-02-24T05:00:10.224Z,99507.16
2024-02-24T05:03:58.284Z,99508.15
2024-02-24T05:12:06.767Z,99513.59
2024-02-24T05:16:01.294Z,99505.66
2024-02-24T05:19:52.188Z,99493.36
2024-02-24T05:23:54.722Z,99496.02
2024-02-24T05:27:46.076Z,99494.68
2024-02-24T05:31:30.500Z,99495.80
2024-02-24T05:35:30.387Z,99484.42
2024-02-24T05:39:11.008Z,99488.37
2024-02-24T05:43:08.764Z,99494.70
2024-02-24T05:47:12.736Z,99494.66
2024-02-24T05:51:15.396Z,99491.70
2024-02-24T05:55:03.591Z,99479.54
2024-02-24T05:58:51.354Z,99482.44
2024-02-24T06:02:42.546Z,99492.91
2024-02-24T06:06:36.380Z,99495.09
2024-02-24T06:10:25.974Z,99482.93
2024-02-24T06:14:23.885Z,99492.59
2024-02-24T06:22:25.145Z,99504.20
2024-02-24T06:26:13.180Z,99491.73
2024-02-24T06:30:01.203Z,99489.66
2024-02-24T06:38:05.527Z,99484.61
2024-02-24T06:41:46.283Z,99479.46
2024-02-24T06:45:36.161Z,99478.92
2024-02-24T06:49:26.264Z,99475.83
2024-02-24T06:53:20.468Z,99477.10
2024-02-24T06:57:13.430Z,99471.83
2024-02-24T07:01:00.520Z,99471.10
2024-02-24T07:04:48.543Z,99471.98
2024-02-24T07:08:47.648Z,99465.96
2024-02-24T07:12:43.994Z,99468.27
2024-02-24T07:16:32.389Z,99461.46
2024-02-24T07:20:20.412Z,99454.50
2024-02-24T07:24:15.962Z,99448.60
2024-02-24T07:32:28.243Z,99461.48
2024-02-24T07:36:17.994Z,99458.75
2024-02-24T07:40:08.364Z,99458.79
2024-02-24T07:44:02.390Z,99456.13
2024-02-24T07:55:28.380Z,99442.23
2024-02-24T08:03:37.021Z,99412.85
2024-02-24T08:07:24.968Z,99405.86
2024-02-24T08:11:06.706Z,99405.09
2024-02-24T08:19:12.331Z,99387.88
2024-02-24T08:22:58.733Z,99383.76
2024-02-24T08:30:18.746Z,99374.83
2024-02-24T08:38:18.041Z,99368.64
2024-02-24T08:42:06.615Z,99371.17
2024-02-24T08:45:59.238Z,99373.84
2024-02-24T08:49:52.367Z,99378.70
2024-02-24T08:53:41.620Z,99372.39
2024-02-24T08:57:29.528Z,99367.06
2024-02-24T09:00:59.713Z,99381.41
2024-02-24T09:04:39.459Z,99386.66
2024-02-24T09:08:20.451Z,99385.27
2024-02-24T09:12:13.004Z,99368.19
2024-02-24T09:15:59.922Z,99360.55
2024-02-24T09:19:51.790Z,99358.63
2024-02-24T09:23:25.112Z,99354.92
2024-02-24T09:27:13.756Z,99361.14
2024-02-24T09:31:07.521Z,99361.45
2024-02-24T09:38:51.402Z,99363.31
2024-02-24T09:42:56.033Z,99356.45
2024-02-24T09:46:45.428Z,99372.71
2024-02-24T09:50:34.142Z,99365.73
2024-02-24T09:58:39.237Z,99368.42
2024-02-24T10:11:10.635Z,99343.45
2024-02-24T10:19:18.316Z,99335.42
2024-02-24T10:23:09.529Z,99335.96
2024-02-24T10:26:56.291Z,99324.17
2024-02-24T10:30:44.255Z,99328.71
2024-02-24T10:34:26.190Z,99323.30
2024-02-24T10:38:23.963Z,99316.58
2024-02-24T10:46:40.217Z,99307.23
2024-02-24T10:50:30.289Z,99324.24
2024-02-24T10:54:22.908Z,99323.77
2024-02-24T10:58:10.767Z,99319.23
2024-02-24T11:01:52.371Z,99308.13
2024-02-24T11:09:49.747Z,99323.54
2024-02-24T11:13:37.654Z,99326.46
2024-02-24T11:17:18.574Z,99325.90
2024-02-24T11:21:20.649Z,99331.08
2024-02-24T11:25:23.858Z,99333.09
2024-02-24T11:29:23.771Z,99339.42
2024-02-24T11:33:09.308Z,99347.90
2024-02-24T11:37:05.057Z,99351.46
2024-02-24T11:40:56.344Z,99349.48
2024-02-24T11:44:48.628Z,99350.13
2024-02-24T11:48:45.933Z,99355.95
2024-02-24T11:52:35.024Z,99347.95
2024-02-24T12:00:37.723Z,99335.42
2024-02-24T12:04:36.133Z,99337.35
2024-02-24T12:08:33.452Z,99339.95
2024-02-24T12:12:36.297Z,99327.85
2024-02-24T12:16:28.053Z,99340.55
2024-02-24T12:24:22.417Z,99331.45
2024-02-24T12:27:50.296Z,99333.67
2024-02-24T12:31:49.026Z,99332.36
2024-02-24T12:40:06.602Z,99336.03
2024-02-24T12:43:58.505Z,99335.23
2024-02-24T12:47:59.019Z,99327.84
2024-02-24T12:56:15.903Z,99321.38
2024-02-24T13:00:18.942Z,99320.14
2024-02-24T13:04:11.005Z,99316.51
2024-02-24T13:08:02.468Z,99322.31
2024-02-24T13:11:55.560Z,99323.74
2024-02-24T13:15:46.486Z,99328.43
2024-02-24T13:23:58.959Z,99346.73
2024-02-24T13:27:49.052Z,99338.26
2024-02-24T13:31:39.276Z,99351.52
2024-02-24T13:39:41.131Z,99356.56
2024-02-24T13:43:31.742Z,99348.11
2024-02-24T13:47:22.886Z,99352.35
2024-02-24T13:51:18.645Z,99363.62
2024-02-24T13:55:07.970Z,99355.95
2024-02-24T13:58:55.402Z,99364.42
2024-02-24T14:02:57.068Z,99373.29
2024-02-24T14:06:51.990Z,99373.00
2024-02-24T14:10:48.002Z,99372.44
2024-02-24T14:14:32.856Z,99369.09
2024-02-24T14:18:20.940Z,99373.02
2024-02-24T14:22:08.897Z,99384.27
2024-02-24T14:25:57.525Z,99394.05
2024-02-24T14:29:45.464Z,99397.96
2024-02-24T14:33:45.757Z,99417.11
2024-02-24T14:37:34.569Z,99425.39
2024-02-24T14:41:22.488Z,99427.98
2024-02-24T14:45:05.142Z,99436.48
2024-02-24T14:49:08.002Z,99440.17
2024-02-24T14:52:54.867Z,99453.55
2024-02-24T14:56:33.958Z,99452.16
2024-02-24T15:04:17.967Z,99462.27
2024-02-24T15:09:30.220Z,99468.00
2024-02-24T15:12:34.115Z,99477.80
2024-02-24T15:16:21.978Z,99490.43
2024-02-24T15:20:09.842Z,99504.92
2024-02-24T15:25:04.584Z,99523.64
2024-02-24T15:31:59.169Z,99560.19
2024-02-24T15:35:23.298Z,99574.29
2024-02-24T15:39:09.970Z,99585.70
2024-02-24T15:42:56.332Z,99610.91
2024-02-24T15:46:44.788Z,99628.24
2024-02-24T15:50:35.383Z,99645.48
2024-02-24T15:55:40.061Z,99659.98
2024-02-24T15:58:56.151Z,99684.42
2024-02-24T16:02:45.635Z,99704.14
2024-02-24T16:06:33.750Z,99725.91
2024-02-24T16:10:22.076Z,99749.07
2024-02-24T16:14:39.020Z,99760.06
2024-02-24T16:22:45.657Z,99801.80
2024-02-24T16:26:45.573Z,99812.94
2024-02-24T16:30:24.119Z,99826.89
2024-02-24T16:34:16.104Z,99831.77
2024-02-24T16:38:04.718Z,99847.58
2024-02-24T16:42:08.803Z,99860.26
2024-02-24T16:45:56.775Z,99866.91
2024-02-24T16:53:56.254Z,99892.96
2024-02-24T16:57:48.005Z,99913.73
2024-02-24T17:01:39.996Z,99924.60
2024-02-24T17:07:33.450Z,99940.08
2024-02-24T17:09:50.897Z,99958.96
2024-02-24T17:13:40.743Z,99972.77
2024-02-24T17:17:21.345Z,99981.30
2024-02-24T17:21:22.443Z,99986.32
2024-02-24T17:25:12.527Z,99997.31
2024-02-24T17:33:26.652Z,100015.75
2024-02-24T17:36:43.160Z,100022.57
2024-02-24T17:40:12.088Z,100031.11
2024-02-24T17:44:11.137Z,100033.48
2024-02-24T17:47:41.280Z,100043.92
2024-02-24T17:51:15.517Z,100054.90
2024-02-24T17:54:25.560Z,100068.48
2024-02-24T18:06:24.501Z,100083.12
2024-02-24T18:10:13.741Z,100084.70
2024-02-24T18:13:46.680Z,100107.77
2024-02-24T18:17:36.348Z,100109.67
2024-02-24T18:21:20.280Z,100115.08
2024-02-24T18:25:03.046Z,100124.69
2024-02-24T18:28:34.730Z,100128.83
2024-02-24T18:32:09.337Z,100137.49
2024-02-24T18:35:52.366Z,100147.21
2024-02-24T18:39:40.268Z,100154.17
2024-02-24T18:43:32.668Z,100165.45
2024-02-24T18:47:25.427Z,100162.02
2024-02-24T18:51:06.307Z,100163.35
2024-02-24T18:54:58.712Z,100169.70
2024-02-24T18:58:46.694Z,100167.31
2024-02-24T19:02:30.689Z,100167.61
2024-02-24T19:06:19.219Z,100175.58
2024-02-24T19:10:01.609Z,100179.22
2024-02-24T19:21:48.741Z,100210.84
2024-02-24T19:25:38.391Z,100213.64
2024-02-24T19:29:17.666Z,100224.56
2024-02-24T19:33:04.543Z,100232.05
2024-02-24T19:36:57.934Z,100240.04
2024-02-24T19:40:49.901Z,100249.73
2024-02-24T19:44:42.791Z,100257.69
2024-02-24T19:48:31.445Z,100257.59
2024-02-24T19:52:24.423Z,100253.02
2024-02-24T19:56:12.380Z,100262.50
2024-02-24T19:59:44.591Z,100274.23
2024-02-24T20:03:33.411Z,100289.02
2024-02-24T20:07:05.689Z,100299.30
2024-02-24T20:10:47.707Z,100303.98
2024-02-24T20:21:29.292Z,100315.17
2024-02-24T20:24:57.871Z,100323.10
2024-02-24T20:28:17.960Z,100323.13
2024-02-24T20:32:35.858Z,100328.52
2024-02-24T20:35:23.199Z,100323.92
2024-02-24T20:38:35.905Z,100325.09
2024-02-24T20:42:05.664Z,100324.14
2024-02-24T20:45:50.957Z,100321.85
2024-02-24T20:49:09.680Z,100328.34
2024-02-24T20:52:19.780Z,100333.79
2024-02-24T20:55:47.630Z,100335.29
2024-02-24T20:59:15.895Z,100337.48
2024-02-24T21:02:43.619Z,100342.56
2024-02-24T21:06:09.865Z,100346.31
2024-02-24T21:09:08.207Z,100355.04
2024-02-24T21:12:35.885Z,100357.89
2024-02-24T21:16:14.793Z,100361.41
2024-02-24T21:19:41.372Z,100369.80
2024-02-24T21:23:12.135Z,100370.20
2024-02-24T21:26:40.005Z,100364.89
2024-02-24T21:30:05.621Z,100361.66
2024-02-24T21:33:35.770Z,100366.89
2024-02-24T21:36:46.872Z,100368.15
2024-02-24T21:40:00.161Z,100373.05
2024-02-24T21:43:19.426Z,100379.14
2024-02-24T21:46:32.370Z,100384.19
2024-02-24T21:49:53.554Z,100393.70
2024-02-24T21:53:04.775Z,100399.23
2024-02-24T21:59:57.817Z,100410.41
2024-02-24T22:03:25.505Z,100408.16
2024-02-24T22:07:16.034Z,100411.09
2024-02-24T22:10:31.214Z,100415.77
2024-02-24T22:14:12.792Z,100421.14
2024-02-24T22:17:52.315Z,100429.62
2024-02-24T22:25:49.710Z,100429.52
2024-02-24T22:29:24.223Z,100431.61
2024-02-24T22:33:14.435Z,100434.92
2024-02-24T22:37:15.222Z,100434.79
2024-02-24T22:45:04.515Z,100451.80
2024-02-24T22:48:40.992Z,100462.90
2024-02-24T22:52:04.140Z,100468.83
2024-02-24T22:55:52.032Z,100471.27
2024-02-24T22:59:05.765Z,100469.25
2024-02-24T23:02:39.538Z,100473.58
2024-02-24T23:06:32.240Z,100474.63
2024-02-24T23:10:03.822Z,100483.79
2024-02-24T23:17:50.485Z,100478.79
2024-02-24T23:21:11.306Z,100473.12
2024-02-24T23:29:02.712Z,100481.83
2024-02-24T23:32:49.644Z,100482.22
2024-02-24T23:36:24.653Z,100486.76
2024-02-24T23:40:15.000Z,100496.59
2024-02-24T23:44:18.213Z,100498.17
2024-02-24T23:48:15.758Z,100502.84
2024-02-24T23:56:22.443Z,100502.87
